| time (UTC) | temp F | wind direction | speed MPH | gust MPH | rain 1hr in | rain 24hr in | rain mn in | humidity % | barometer mb |
| 20260507080020 | 54 | 120 | 0.0 | 9.0 | 0.00 | 0.20 | 0.01 | 71 | 1012.5 |
| 20260507074558 | 54 | 120 | 0.0 | 4.0 | 0.00 | 0.20 | 0.01 | 72 | 1012.5 |
| 20260507073018 | 53 | 120 | 0.0 | 8.0 | 0.00 | 0.20 | 0.01 | 72 | 1012.4 |
| 20260507071547 | 54 | 121 | 0.0 | 4.0 | 0.00 | 0.20 | 0.01 | 71 | 1012.2 |
| 20260507070045 | 55 | 120 | 0.0 | 8.0 | 0.00 | 0.20 | 0.01 | 72 | 1012.1 |
| 20260507064608 | 55 | 121 | 0.0 | 10.0 | 0.00 | 0.20 | 0.01 | 74 | 1012.2 |
| 20260507063009 | 53 | 120 | 0.0 | 1.0 | 0.01 | 0.20 | 0.01 | 78 | 1012.1 |
| 20260507061521 | 50 | 120 | 0.0 | 0.0 | 0.01 | 0.20 | 0.01 | 83 | 1012.0 |
| 20260507060037 | 49 | 120 | 0.0 | 1.0 | 0.01 | 0.20 | 0.01 | 87 | 1011.9 |
| 20260507054608 | 48 | 121 | 0.0 | 0.0 | 0.01 | 0.20 | 0.01 | 92 | 1011.8 |
| 20260507053036 | 47 | 120 | 0.0 | 0.0 | 0.00 | 0.20 | 0.00 | 95 | 1011.7 |
| 20260507051547 | 46 | 120 | 0.0 | 0.0 | 0.00 | 0.20 | 0.00 | 96 | 1011.4 |
| 20260507050011 | 45 | 120 | 0.0 | 0.0 | 0.00 | 0.20 | 0.00 | 96 | 1011.3 |
| 20260507044524 | 45 | 120 | 0.0 | 0.0 | 0.00 | 0.20 | 0.00 | 96 | 1011.2 |
| 20260507043041 | 45 | 120 | 0.0 | 0.0 | 0.00 | 0.20 | 0.00 | 96 | 1010.8 |
| 20260507041612 | 45 | 121 | 0.0 | 0.0 | 0.00 | 0.20 | 0.00 | 96 | 1010.8 |
| 20260507040013 | 44 | 120 | 0.0 | 0.0 | 0.00 | 0.20 | 0.00 | 96 | 1010.6 |
| 20260507034544 | 44 | 121 | 0.0 | 0.0 | 0.00 | 0.20 | 0.00 | 95 | 1010.5 |
| 20260507033102 | 44 | 121 | 0.0 | 0.0 | 0.00 | 0.20 | 0.00 | 95 | 1010.5 |
| 20260507031507 | 45 | 121 | 0.0 | 0.0 | 0.00 | 0.20 | 0.00 | 95 | 1010.5 |
| 20260507030024 | 45 | 120 | 0.0 | 0.0 | 0.00 | 0.20 | 0.00 | 95 | 1010.5 |
| 20260507024544 | 44 | 120 | 0.0 | 0.0 | 0.00 | 0.20 | 0.00 | 95 | 1010.4 |
| 20260507023112 | 44 | 121 | 0.0 | 0.0 | 0.00 | 0.20 | 0.00 | 95 | 1010.4 |
| 20260507021508 | 44 | 120 | 0.0 | 0.0 | 0.00 | 0.20 | 0.00 | 95 | 1010.3 |
| 20260507020027 | 43 | 121 | 0.0 | 0.0 | 0.00 | 0.20 | 0.00 | 95 | 1010.1 |
| 20260507014555 | 43 | 120 | 0.0 | 0.0 | 0.00 | 0.20 | 0.00 | 95 | 1010.0 |
| 20260507013030 | 43 | 120 | 0.0 | 0.0 | 0.00 | 0.20 | 0.00 | 95 | 1009.9 |
| 20260507011540 | 43 | 120 | 0.0 | 0.0 | 0.00 | 0.20 | 0.00 | 94 | 1009.9 |
| 20260507010051 | 43 | 121 | 0.0 | 0.0 | 0.00 | 0.20 | 0.00 | 94 | 1009.9 |
| 20260507004603 | 44 | 120 | 0.0 | 0.0 | 0.00 | 0.20 | 0.00 | 94 | 1009.9 |
| 20260507003017 | 44 | 120 | 0.0 | 0.0 | 0.00 | 0.20 | 0.00 | 93 | 1009.9 |
| 20260507001528 | 45 | 121 | 0.0 | 0.0 | 0.00 | 0.20 | 0.00 | 92 | 1009.9 |
| 20260507000042 | 46 | 121 | 0.0 | 0.0 | 0.00 | 0.20 | 0.00 | 91 | 1010.0 |
| 20260506234553 | 47 | 121 | 0.0 | 0.0 | 0.00 | 0.20 | 0.00 | 90 | 1010.1 |
| 20260506233001 | 49 | 121 | 0.0 | 0.0 | 0.00 | 0.20 | 0.00 | 86 | 1010.1 |
| 20260506231543 | 48 | 120 | 0.0 | 0.0 | 0.00 | 0.20 | 0.00 | 86 | 1009.9 |
| 20260506230054 | 48 | 120 | 0.0 | 0.0 | 0.00 | 0.20 | 0.00 | 86 | 1009.9 |
| 20260506224521 | 49 | 120 | 0.0 | 0.0 | 0.00 | 0.20 | 0.00 | 85 | 1010.0 |
| 20260506223120 | 49 | 121 | 0.0 | 0.0 | 0.00 | 0.20 | 0.00 | 85 | 1009.8 |
| 20260506221602 | 49 | 120 | 0.0 | 0.0 | 0.00 | 0.20 | 0.00 | 85 | 1009.7 |
| 20260506220007 | 49 | 121 | 0.0 | 0.0 | 0.00 | 0.20 | 0.00 | 85 | 1009.6 |
| 20260506214523 | 49 | 121 | 0.0 | 0.0 | 0.00 | 0.24 | 0.20 | 85 | 1009.6 |
| 20260506213040 | 49 | 120 | 0.0 | 0.0 | 0.00 | 0.24 | 0.20 | 87 | 1009.4 |
| 20260506211558 | 48 | 120 | 0.0 | 0.0 | 0.00 | 0.24 | 0.20 | 89 | 1009.3 |
| 20260506210008 | 48 | 120 | 0.0 | 0.0 | 0.00 | 0.24 | 0.20 | 89 | 1009.2 |
| 20260506204523 | 49 | 120 | 0.0 | 1.0 | 0.00 | 0.46 | 0.20 | 88 | 1009.3 |
| 20260506203045 | 48 | 120 | 0.0 | 0.0 | 0.00 | 0.46 | 0.20 | 89 | 1009.0 |
| 20260506201504 | 48 | 120 | 0.0 | 0.0 | 0.01 | 0.46 | 0.20 | 89 | 1008.8 |
| 20260506200020 | 49 | 120 | 0.0 | 0.0 | 0.01 | 0.46 | 0.20 | 89 | 1008.6 |
| 20260506194548 | 49 | 120 | 0.0 | 0.0 | 0.01 | 0.65 | 0.20 | 87 | 1008.6 |
| 20260506193057 | 49 | 120 | 0.0 | 0.0 | 0.01 | 0.65 | 0.20 | 85 | 1008.6 |
| 20260506191541 | 49 | 120 | 0.0 | 1.0 | 0.00 | 0.64 | 0.20 | 85 | 1008.6 |
| 20260506190030 | 50 | 121 | 0.0 | 0.0 | 0.00 | 0.64 | 0.20 | 84 | 1008.4 |
| 20260506184553 | 50 | 121 | 0.0 | 2.0 | 0.00 | 0.64 | 0.20 | 83 | 1008.1 |
| 20260506183010 | 50 | 121 | 0.0 | 0.0 | 0.00 | 0.64 | 0.20 | 82 | 1007.6 |
| 20260506181530 | 51 | 120 | 0.0 | 4.0 | 0.00 | 0.64 | 0.20 | 81 | 1007.2 |
| 20260506180050 | 51 | 120 | 0.0 | 6.0 | 0.00 | 0.64 | 0.20 | 81 | 1007.0 |
| 20260506174504 | 51 | 121 | 0.0 | 12.0 | 0.01 | 0.64 | 0.20 | 80 | 1006.8 |
| 20260506173022 | 51 | 120 | 1.0 | 13.0 | 0.01 | 0.64 | 0.20 | 80 | 1006.5 |
| 20260506171547 | 52 | 120 | 1.0 | 10.0 | 0.01 | 0.64 | 0.20 | 80 | 1006.2 |
| 20260506170054 | 53 | 120 | 2.0 | 16.0 | 0.01 | 0.64 | 0.20 | 79 | 1005.9 |
| 20260506164507 | 57 | 120 | 0.0 | 1.0 | 0.00 | 0.63 | 0.19 | 86 | 1005.2 |
| 20260506163025 | 56 | 120 | 0.0 | 1.0 | 0.00 | 0.63 | 0.19 | 87 | 1004.8 |
| 20260506161556 | 56 | 120 | 0.0 | 1.0 | 0.00 | 0.63 | 0.19 | 88 | 1004.7 |
| 20260506160040 | 55 | 120 | 0.0 | 0.0 | 0.00 | 0.63 | 0.19 | 89 | 1004.4 |
| 20260506154558 | 55 | 120 | 0.0 | 0.0 | 0.00 | 0.63 | 0.19 | 89 | 1004.5 |
| 20260506153011 | 55 | 120 | 0.0 | 0.0 | 0.02 | 0.63 | 0.19 | 90 | 1004.3 |
| 20260506151519 | 55 | 120 | 0.0 | 2.0 | 0.14 | 0.63 | 0.19 | 92 | 1004.1 |
| 20260506150037 | 53 | 121 | 1.0 | 9.0 | 0.18 | 0.63 | 0.19 | 92 | 1003.9 |
| 20260506144601 | 53 | 121 | 0.0 | 10.0 | 0.18 | 0.63 | 0.19 | 92 | 1004.4 |
| 20260506143016 | 53 | 121 | 5.0 | 22.0 | 0.16 | 0.61 | 0.17 | 89 | 1004.5 |
| 20260506141537 | 59 | 120 | 4.0 | 16.0 | 0.04 | 0.49 | 0.05 | 74 | 1003.7 |
| 20260506140053 | 63 | 120 | 1.0 | 11.0 | 0.00 | 0.45 | 0.01 | 65 | 1001.8 |
| 20260506134512 | 64 | 120 | 0.0 | 5.0 | 0.00 | 0.45 | 0.01 | 61 | 1002.2 |
| 20260506133037 | 65 | 120 | 0.0 | 1.0 | 0.00 | 0.45 | 0.01 | 59 | 1002.3 |
| 20260506131612 | 65 | 120 | 0.0 | 0.0 | 0.00 | 0.45 | 0.01 | 58 | 1002.3 |
| 20260506130002 | 65 | 120 | 0.0 | 0.0 | 0.00 | 0.45 | 0.01 | 59 | 1002.5 |
| 20260506124524 | 65 | 120 | 0.0 | 0.0 | 0.00 | 0.45 | 0.01 | 59 | 1002.6 |
| 20260506123055 | 64 | 121 | 0.0 | 0.0 | 0.00 | 0.45 | 0.01 | 60 | 1002.8 |
| 20260506121514 | 65 | 120 | 0.0 | 0.0 | 0.00 | 0.45 | 0.01 | 60 | 1003.1 |
| 20260506120024 | 65 | 120 | 0.0 | 0.0 | 0.00 | 0.45 | 0.01 | 61 | 1003.1 |
| 20260506114551 | 64 | 120 | 0.0 | 0.0 | 0.00 | 0.45 | 0.01 | 60 | 1003.3 |
| 20260506113008 | 63 | 120 | 0.0 | 0.0 | 0.00 | 0.45 | 0.01 | 62 | 1003.5 |
| 20260506111534 | 63 | 120 | 0.0 | 1.0 | 0.00 | 0.45 | 0.01 | 63 | 1003.6 |
| 20260506110053 | 62 | 120 | 0.0 | 1.0 | 0.00 | 0.45 | 0.01 | 63 | 1003.9 |
| 20260506104607 | 61 | 120 | 0.0 | 0.0 | 0.00 | 0.45 | 0.01 | 66 | 1004.0 |
| 20260506103029 | 61 | 121 | 0.0 | 0.0 | 0.00 | 0.45 | 0.01 | 70 | 1004.5 |
| 20260506101549 | 60 | 121 | 0.0 | 0.0 | 0.00 | 0.45 | 0.01 | 69 | 1004.5 |
| 20260506100007 | 60 | 121 | 0.0 | 0.0 | 0.00 | 0.45 | 0.01 | 70 | 1004.5 |
| 20260506094522 | 60 | 121 | 0.0 | 0.0 | 0.00 | 0.45 | 0.01 | 71 | 1004.5 |
| 20260506093052 | 59 | 121 | 0.0 | 0.0 | 0.00 | 0.45 | 0.01 | 72 | 1004.8 |
| 20260506091506 | 59 | 120 | 0.0 | 1.0 | 0.00 | 0.45 | 0.01 | 72 | 1004.8 |
| 20260506090028 | 59 | 121 | 0.0 | 0.0 | 0.00 | 0.45 | 0.01 | 73 | 1004.6 |
| 20260506084546 | 59 | 121 | 0.0 | 0.0 | 0.00 | 0.45 | 0.01 | 76 | 1004.6 |
| 20260506083121 | 60 | 120 | 0.0 | 0.0 | 0.00 | 0.45 | 0.01 | 76 | 1004.7 |
| 20260506081528 | 60 | 121 | 0.0 | 0.0 | 0.00 | 0.45 | 0.01 | 73 | 1004.7 |